sensor_id;sensor_type;location;lat;lon;timestamp;P1;durP1;ratioP1;P2;durP2;ratioP2
8538;SDS011;4307;53.868;11.680;2024-02-28T00:00:43;18.57;;;9.93;;
8538;SDS011;4307;53.868;11.680;2024-02-28T00:03:10;19.20;;;9.10;;
8538;SDS011;4307;53.868;11.680;2024-02-28T00:05:36;18.07;;;8.97;;
8538;SDS011;4307;53.868;11.680;2024-02-28T00:08:05;18.60;;;8.80;;
8538;SDS011;4307;53.868;11.680;2024-02-28T00:10:31;18.50;;;9.10;;
8538;SDS011;4307;53.868;11.680;2024-02-28T00:12:58;21.37;;;9.57;;
8538;SDS011;4307;53.868;11.680;2024-02-28T00:15:25;19.83;;;9.77;;
8538;SDS011;4307;53.868;11.680;2024-02-28T00:17:52;17.53;;;9.43;;
8538;SDS011;4307;53.868;11.680;2024-02-28T00:20:18;19.27;;;9.60;;
8538;SDS011;4307;53.868;11.680;2024-02-28T00:22:45;17.60;;;8.73;;
8538;SDS011;4307;53.868;11.680;2024-02-28T00:25:13;19.03;;;9.13;;
8538;SDS011;4307;53.868;11.680;2024-02-28T00:27:40;16.63;;;8.93;;
8538;SDS011;4307;53.868;11.680;2024-02-28T00:30:07;16.07;;;9.10;;
8538;SDS011;4307;53.868;11.680;2024-02-28T00:32:35;21.07;;;9.63;;
8538;SDS011;4307;53.868;11.680;2024-02-28T00:35:01;18.80;;;10.60;;
8538;SDS011;4307;53.868;11.680;2024-02-28T00:37:29;16.93;;;9.50;;
8538;SDS011;4307;53.868;11.680;2024-02-28T00:39:55;19.23;;;9.97;;
8538;SDS011;4307;53.868;11.680;2024-02-28T00:42:23;21.27;;;10.73;;
8538;SDS011;4307;53.868;11.680;2024-02-28T00:44:50;19.67;;;9.90;;
8538;SDS011;4307;53.868;11.680;2024-02-28T00:47:17;17.27;;;9.87;;
8538;SDS011;4307;53.868;11.680;2024-02-28T00:49:43;17.83;;;10.03;;
8538;SDS011;4307;53.868;11.680;2024-02-28T00:52:10;23.00;;;10.60;;
8538;SDS011;4307;53.868;11.680;2024-02-28T00:54:36;26.13;;;11.13;;
8538;SDS011;4307;53.868;11.680;2024-02-28T00:57:03;23.23;;;10.23;;
8538;SDS011;4307;53.868;11.680;2024-02-28T00:59:31;30.33;;;10.93;;
8538;SDS011;4307;53.868;11.680;2024-02-28T01:01:58;27.87;;;11.03;;
8538;SDS011;4307;53.868;11.680;2024-02-28T01:04:25;25.90;;;11.60;;
8538;SDS011;4307;53.868;11.680;2024-02-28T01:06:51;23.60;;;11.30;;
8538;SDS011;4307;53.868;11.680;2024-02-28T01:09:18;25.43;;;11.23;;
8538;SDS011;4307;53.868;11.680;2024-02-28T01:11:45;29.10;;;12.13;;
8538;SDS011;4307;53.868;11.680;2024-02-28T01:14:11;28.83;;;12.13;;
8538;SDS011;4307;53.868;11.680;2024-02-28T01:16:39;23.10;;;12.07;;
8538;SDS011;4307;53.868;11.680;2024-02-28T01:19:06;28.30;;;12.33;;
8538;SDS011;4307;53.868;11.680;2024-02-28T01:21:32;33.70;;;12.80;;
8538;SDS011;4307;53.868;11.680;2024-02-28T01:23:58;27.77;;;12.10;;
8538;SDS011;4307;53.868;11.680;2024-02-28T01:26:25;31.40;;;12.47;;
8538;SDS011;4307;53.868;11.680;2024-02-28T01:28:51;27.43;;;13.43;;
8538;SDS011;4307;53.868;11.680;2024-02-28T01:31:18;28.87;;;12.50;;
8538;SDS011;4307;53.868;11.680;2024-02-28T01:33:46;31.20;;;12.90;;
8538;SDS011;4307;53.868;11.680;2024-02-28T01:36:12;28.27;;;13.00;;
8538;SDS011;4307;53.868;11.680;2024-02-28T01:38:39;28.30;;;12.00;;
8538;SDS011;4307;53.868;11.680;2024-02-28T01:41:06;25.27;;;12.53;;
8538;SDS011;4307;53.868;11.680;2024-02-28T01:43:33;24.97;;;11.63;;
8538;SDS011;4307;53.868;11.680;2024-02-28T01:46:00;23.83;;;11.37;;
8538;SDS011;4307;53.868;11.680;2024-02-28T01:48:29;23.53;;;10.47;;
8538;SDS011;4307;53.868;11.680;2024-02-28T01:50:58;21.80;;;11.13;;
8538;SDS011;4307;53.868;11.680;2024-02-28T01:53:25;21.67;;;11.33;;
8538;SDS011;4307;53.868;11.680;2024-02-28T01:55:52;24.93;;;11.83;;
8538;SDS011;4307;53.868;11.680;2024-02-28T01:58:19;22.87;;;11.40;;
8538;SDS011;4307;53.868;11.680;2024-02-28T02:00:46;26.77;;;12.47;;
8538;SDS011;4307;53.868;11.680;2024-02-28T02:03:14;28.73;;;13.40;;
8538;SDS011;4307;53.868;11.680;2024-02-28T02:05:41;29.70;;;13.43;;
8538;SDS011;4307;53.868;11.680;2024-02-28T02:08:09;32.20;;;14.27;;
8538;SDS011;4307;53.868;11.680;2024-02-28T02:10:37;31.83;;;13.80;;
8538;SDS011;4307;53.868;11.680;2024-02-28T02:13:04;29.40;;;13.43;;
8538;SDS011;4307;53.868;11.680;2024-02-28T02:15:31;33.30;;;14.33;;
8538;SDS011;4307;53.868;11.680;2024-02-28T02:17:57;29.20;;;13.93;;
8538;SDS011;4307;53.868;11.680;2024-02-28T02:20:24;34.57;;;15.17;;
8538;SDS011;4307;53.868;11.680;2024-02-28T02:22:53;30.47;;;14.57;;
8538;SDS011;4307;53.868;11.680;2024-02-28T02:25:20;30.50;;;13.13;;
8538;SDS011;4307;53.868;11.680;2024-02-28T02:27:47;27.73;;;13.07;;
8538;SDS011;4307;53.868;11.680;2024-02-28T02:30:14;24.33;;;12.43;;
8538;SDS011;4307;53.868;11.680;2024-02-28T02:32:40;30.77;;;13.23;;
8538;SDS011;4307;53.868;11.680;2024-02-28T02:35:07;26.13;;;11.93;;
8538;SDS011;4307;53.868;11.680;2024-02-28T02:37:34;25.23;;;11.73;;
8538;SDS011;4307;53.868;11.680;2024-02-28T02:40:02;30.37;;;13.90;;
8538;SDS011;4307;53.868;11.680;2024-02-28T02:42:29;32.80;;;13.57;;
8538;SDS011;4307;53.868;11.680;2024-02-28T02:44:56;27.23;;;13.30;;
8538;SDS011;4307;53.868;11.680;2024-02-28T02:47:22;28.97;;;14.30;;
8538;SDS011;4307;53.868;11.680;2024-02-28T02:49:49;30.50;;;13.87;;
8538;SDS011;4307;53.868;11.680;2024-02-28T02:52:15;32.37;;;14.77;;
8538;SDS011;4307;53.868;11.680;2024-02-28T02:54:42;33.33;;;14.77;;
8538;SDS011;4307;53.868;11.680;2024-02-28T02:57:10;33.73;;;15.47;;
8538;SDS011;4307;53.868;11.680;2024-02-28T02:59:37;31.43;;;14.17;;
8538;SDS011;4307;53.868;11.680;2024-02-28T03:02:03;30.57;;;14.30;;
8538;SDS011;4307;53.868;11.680;2024-02-28T03:04:30;24.13;;;11.73;;
8538;SDS011;4307;53.868;11.680;2024-02-28T03:06:57;25.70;;;12.00;;
8538;SDS011;4307;53.868;11.680;2024-02-28T03:09:23;22.80;;;12.30;;
8538;SDS011;4307;53.868;11.680;2024-02-28T03:11:50;23.47;;;12.67;;
8538;SDS011;4307;53.868;11.680;2024-02-28T03:14:18;26.93;;;12.23;;
8538;SDS011;4307;53.868;11.680;2024-02-28T03:16:47;22.40;;;11.33;;
8538;SDS011;4307;53.868;11.680;2024-02-28T03:19:14;21.90;;;10.97;;
8538;SDS011;4307;53.868;11.680;2024-02-28T03:21:41;20.70;;;11.50;;
8538;SDS011;4307;53.868;11.680;2024-02-28T03:24:07;25.93;;;12.37;;
8538;SDS011;4307;53.868;11.680;2024-02-28T03:26:34;24.97;;;11.97;;
8538;SDS011;4307;53.868;11.680;2024-02-28T03:29:01;23.83;;;11.07;;
8538;SDS011;4307;53.868;11.680;2024-02-28T03:31:29;24.03;;;12.30;;
8538;SDS011;4307;53.868;11.680;2024-02-28T03:33:56;22.10;;;11.83;;
8538;SDS011;4307;53.868;11.680;2024-02-28T03:36:22;23.97;;;11.47;;
8538;SDS011;4307;53.868;11.680;2024-02-28T03:38:49;26.60;;;13.10;;
8538;SDS011;4307;53.868;11.680;2024-02-28T03:41:15;24.67;;;12.90;;
8538;SDS011;4307;53.868;11.680;2024-02-28T03:43:44;23.30;;;10.23;;
8538;SDS011;4307;53.868;11.680;2024-02-28T03:46:10;22.43;;;11.67;;
8538;SDS011;4307;53.868;11.680;2024-02-28T03:48:38;19.40;;;10.13;;
8538;SDS011;4307;53.868;11.680;2024-02-28T03:51:05;21.00;;;10.53;;
8538;SDS011;4307;53.868;11.680;2024-02-28T03:53:32;19.67;;;10.37;;
8538;SDS011;4307;53.868;11.680;2024-02-28T03:55:58;19.23;;;10.13;;
8538;SDS011;4307;53.868;11.680;2024-02-28T03:58:25;19.33;;;9.63;;
8538;SDS011;4307;53.868;11.680;2024-02-28T04:00:52;14.67;;;8.23;;
8538;SDS011;4307;53.868;11.680;2024-02-28T04:03:18;14.13;;;8.60;;
8538;SDS011;4307;53.868;11.680;2024-02-28T04:05:46;15.87;;;7.93;;
8538;SDS011;4307;53.868;11.680;2024-02-28T04:08:13;16.83;;;8.43;;
8538;SDS011;4307;53.868;11.680;2024-02-28T04:10:39;13.23;;;7.70;;
8538;SDS011;4307;53.868;11.680;2024-02-28T04:13:06;13.47;;;7.80;;
8538;SDS011;4307;53.868;11.680;2024-02-28T04:15:33;18.27;;;8.43;;
8538;SDS011;4307;53.868;11.680;2024-02-28T04:17:59;14.43;;;7.67;;
8538;SDS011;4307;53.868;11.680;2024-02-28T04:20:26;13.80;;;7.20;;
8538;SDS011;4307;53.868;11.680;2024-02-28T04:22:54;14.83;;;7.90;;
8538;SDS011;4307;53.868;11.680;2024-02-28T04:25:21;13.27;;;6.83;;
8538;SDS011;4307;53.868;11.680;2024-02-28T04:27:47;13.33;;;8.27;;
8538;SDS011;4307;53.868;11.680;2024-02-28T04:30:14;13.33;;;7.00;;
8538;SDS011;4307;53.868;11.680;2024-02-28T04:32:41;13.00;;;7.63;;
8538;SDS011;4307;53.868;11.680;2024-02-28T04:35:08;12.57;;;7.53;;
8538;SDS011;4307;53.868;11.680;2024-02-28T04:37:34;11.37;;;6.83;;
8538;SDS011;4307;53.868;11.680;2024-02-28T04:40:02;9.80;;;6.37;;
8538;SDS011;4307;53.868;11.680;2024-02-28T04:42:31;10.90;;;6.27;;
8538;SDS011;4307;53.868;11.680;2024-02-28T04:44:58;11.27;;;6.97;;
8538;SDS011;4307;53.868;11.680;2024-02-28T04:47:25;8.83;;;5.70;;
8538;SDS011;4307;53.868;11.680;2024-02-28T04:49:51;8.90;;;5.90;;
8538;SDS011;4307;53.868;11.680;2024-02-28T04:52:18;8.73;;;6.00;;
8538;SDS011;4307;53.868;11.680;2024-02-28T04:54:44;10.73;;;6.27;;
8538;SDS011;4307;53.868;11.680;2024-02-28T04:57:12;9.50;;;6.20;;
8538;SDS011;4307;53.868;11.680;2024-02-28T04:59:40;9.13;;;5.60;;
8538;SDS011;4307;53.868;11.680;2024-02-28T05:02:08;8.80;;;5.40;;
8538;SDS011;4307;53.868;11.680;2024-02-28T05:04:34;11.10;;;6.10;;
8538;SDS011;4307;53.868;11.680;2024-02-28T05:07:01;10.60;;;5.83;;
8538;SDS011;4307;53.868;11.680;2024-02-28T05:09:28;9.17;;;5.27;;
8538;SDS011;4307;53.868;11.680;2024-02-28T05:11:55;11.37;;;6.47;;
8538;SDS011;4307;53.868;11.680;2024-02-28T05:14:23;13.73;;;7.20;;
8538;SDS011;4307;53.868;11.680;2024-02-28T05:16:49;12.77;;;6.83;;
8538;SDS011;4307;53.868;11.680;2024-02-28T05:19:16;13.30;;;7.17;;
8538;SDS011;4307;53.868;11.680;2024-02-28T05:21:44;14.57;;;7.77;;
8538;SDS011;4307;53.868;11.680;2024-02-28T05:24:11;14.60;;;7.27;;
8538;SDS011;4307;53.868;11.680;2024-02-28T05:26:38;11.10;;;6.77;;
8538;SDS011;4307;53.868;11.680;2024-02-28T05:29:05;11.20;;;6.50;;
8538;SDS011;4307;53.868;11.680;2024-02-28T05:31:34;14.00;;;7.00;;
8538;SDS011;4307;53.868;11.680;2024-02-28T05:34:01;14.33;;;7.27;;
8538;SDS011;4307;53.868;11.680;2024-02-28T05:36:29;10.27;;;6.53;;
8538;SDS011;4307;53.868;11.680;2024-02-28T05:38:56;12.80;;;6.43;;
8538;SDS011;4307;53.868;11.680;2024-02-28T05:41:24;11.60;;;6.47;;
8538;SDS011;4307;53.868;11.680;2024-02-28T05:43:51;9.90;;;6.03;;
8538;SDS011;4307;53.868;11.680;2024-02-28T05:46:18;14.23;;;7.10;;
8538;SDS011;4307;53.868;11.680;2024-02-28T05:48:46;13.73;;;6.97;;
8538;SDS011;4307;53.868;11.680;2024-02-28T05:51:13;15.87;;;7.23;;
8538;SDS011;4307;53.868;11.680;2024-02-28T05:53:41;16.37;;;7.50;;
8538;SDS011;4307;53.868;11.680;2024-02-28T05:56:08;12.17;;;6.80;;
8538;SDS011;4307;53.868;11.680;2024-02-28T05:58:39;10.93;;;6.37;;
8538;SDS011;4307;53.868;11.680;2024-02-28T06:01:06;12.97;;;7.50;;
8538;SDS011;4307;53.868;11.680;2024-02-28T06:03:33;13.67;;;7.43;;
8538;SDS011;4307;53.868;11.680;2024-02-28T06:06:01;15.07;;;8.00;;
8538;SDS011;4307;53.868;11.680;2024-02-28T06:08:30;12.63;;;7.67;;
8538;SDS011;4307;53.868;11.680;2024-02-28T06:10:57;13.37;;;7.33;;
8538;SDS011;4307;53.868;11.680;2024-02-28T06:13:23;13.90;;;7.43;;
8538;SDS011;4307;53.868;11.680;2024-02-28T06:15:50;14.70;;;7.63;;
8538;SDS011;4307;53.868;11.680;2024-02-28T06:18:17;15.97;;;7.87;;
8538;SDS011;4307;53.868;11.680;2024-02-28T06:20:43;16.87;;;8.00;;
8538;SDS011;4307;53.868;11.680;2024-02-28T06:23:11;12.50;;;7.73;;
8538;SDS011;4307;53.868;11.680;2024-02-28T06:25:38;13.77;;;8.37;;
8538;SDS011;4307;53.868;11.680;2024-02-28T06:28:05;13.73;;;7.87;;
8538;SDS011;4307;53.868;11.680;2024-02-28T06:30:31;16.30;;;8.57;;
8538;SDS011;4307;53.868;11.680;2024-02-28T06:32:59;15.50;;;8.17;;
8538;SDS011;4307;53.868;11.680;2024-02-28T06:35:25;15.77;;;8.70;;
8538;SDS011;4307;53.868;11.680;2024-02-28T06:37:52;14.37;;;7.70;;
8538;SDS011;4307;53.868;11.680;2024-02-28T06:40:20;15.57;;;8.03;;
8538;SDS011;4307;53.868;11.680;2024-02-28T06:42:47;15.67;;;8.17;;
8538;SDS011;4307;53.868;11.680;2024-02-28T06:45:14;15.43;;;8.23;;
8538;SDS011;4307;53.868;11.680;2024-02-28T06:47:41;16.33;;;8.90;;
8538;SDS011;4307;53.868;11.680;2024-02-28T06:50:10;14.53;;;8.20;;
8538;SDS011;4307;53.868;11.680;2024-02-28T06:52:36;13.77;;;7.40;;
8538;SDS011;4307;53.868;11.680;2024-02-28T06:55:03;15.97;;;8.10;;
8538;SDS011;4307;53.868;11.680;2024-02-28T06:57:36;15.60;;;8.00;;
8538;SDS011;4307;53.868;11.680;2024-02-28T07:00:03;15.83;;;8.53;;
8538;SDS011;4307;53.868;11.680;2024-02-28T07:02:33;15.83;;;8.23;;
8538;SDS011;4307;53.868;11.680;2024-02-28T07:04:59;20.97;;;8.77;;
8538;SDS011;4307;53.868;11.680;2024-02-28T07:07:26;17.90;;;9.03;;
8538;SDS011;4307;53.868;11.680;2024-02-28T07:09:53;17.87;;;9.33;;
8538;SDS011;4307;53.868;11.680;2024-02-28T07:12:19;19.73;;;9.67;;
8538;SDS011;4307;53.868;11.680;2024-02-28T07:14:47;19.50;;;9.80;;
8538;SDS011;4307;53.868;11.680;2024-02-28T07:17:14;14.97;;;8.13;;
8538;SDS011;4307;53.868;11.680;2024-02-28T07:19:41;16.43;;;7.80;;
8538;SDS011;4307;53.868;11.680;2024-02-28T07:22:07;14.73;;;8.70;;
8538;SDS011;4307;53.868;11.680;2024-02-28T07:24:34;15.33;;;8.50;;
8538;SDS011;4307;53.868;11.680;2024-02-28T07:27:01;17.30;;;8.43;;
8538;SDS011;4307;53.868;11.680;2024-02-28T07:29:28;14.20;;;8.40;;
8538;SDS011;4307;53.868;11.680;2024-02-28T07:31:56;20.97;;;8.70;;
8538;SDS011;4307;53.868;11.680;2024-02-28T07:34:23;16.17;;;8.77;;
8538;SDS011;4307;53.868;11.680;2024-02-28T07:36:49;18.53;;;9.33;;
8538;SDS011;4307;53.868;11.680;2024-02-28T07:39:16;15.50;;;8.77;;
8538;SDS011;4307;53.868;11.680;2024-02-28T07:41:43;15.53;;;8.87;;
8538;SDS011;4307;53.868;11.680;2024-02-28T07:44:10;16.73;;;8.87;;
8538;SDS011;4307;53.868;11.680;2024-02-28T07:46:37;20.07;;;9.37;;
8538;SDS011;4307;53.868;11.680;2024-02-28T07:49:05;15.10;;;9.27;;
8538;SDS011;4307;53.868;11.680;2024-02-28T07:51:32;14.63;;;8.03;;
8538;SDS011;4307;53.868;11.680;2024-02-28T07:53:58;17.03;;;8.70;;
8538;SDS011;4307;53.868;11.680;2024-02-28T07:56:25;14.83;;;8.40;;
8538;SDS011;4307;53.868;11.680;2024-02-28T07:58:52;16.93;;;9.03;;
8538;SDS011;4307;53.868;11.680;2024-02-28T08:01:19;20.07;;;9.37;;
8538;SDS011;4307;53.868;11.680;2024-02-28T08:03:47;15.07;;;8.73;;
8538;SDS011;4307;53.868;11.680;2024-02-28T08:06:15;18.73;;;10.07;;
8538;SDS011;4307;53.868;11.680;2024-02-28T08:08:43;15.03;;;9.30;;
8538;SDS011;4307;53.868;11.680;2024-02-28T08:11:11;18.57;;;9.67;;
8538;SDS011;4307;53.868;11.680;2024-02-28T08:13:38;17.33;;;8.80;;
8538;SDS011;4307;53.868;11.680;2024-02-28T08:16:05;18.03;;;8.77;;
8538;SDS011;4307;53.868;11.680;2024-02-28T08:18:34;19.33;;;9.73;;
8538;SDS011;4307;53.868;11.680;2024-02-28T08:21:01;20.67;;;10.77;;
8538;SDS011;4307;53.868;11.680;2024-02-28T08:23:29;17.33;;;9.70;;
8538;SDS011;4307;53.868;11.680;2024-02-28T08:25:57;19.80;;;9.53;;
8538;SDS011;4307;53.868;11.680;2024-02-28T08:28:23;20.13;;;9.97;;
8538;SDS011;4307;53.868;11.680;2024-02-28T08:30:50;19.03;;;9.77;;
8538;SDS011;4307;53.868;11.680;2024-02-28T08:33:17;18.90;;;10.17;;
8538;SDS011;4307;53.868;11.680;2024-02-28T08:35:43;19.50;;;10.57;;
8538;SDS011;4307;53.868;11.680;2024-02-28T08:38:10;18.00;;;10.03;;
8538;SDS011;4307;53.868;11.680;2024-02-28T08:40:38;18.73;;;9.90;;
8538;SDS011;4307;53.868;11.680;2024-02-28T08:43:05;18.73;;;10.97;;
8538;SDS011;4307;53.868;11.680;2024-02-28T08:45:32;19.80;;;10.60;;
8538;SDS011;4307;53.868;11.680;2024-02-28T08:47:59;20.37;;;10.97;;
8538;SDS011;4307;53.868;11.680;2024-02-28T08:50:26;17.03;;;10.27;;
8538;SDS011;4307;53.868;11.680;2024-02-28T08:52:53;21.70;;;11.73;;
8538;SDS011;4307;53.868;11.680;2024-02-28T08:55:19;22.13;;;12.23;;
8538;SDS011;4307;53.868;11.680;2024-02-28T08:57:48;23.73;;;11.63;;
8538;SDS011;4307;53.868;11.680;2024-02-28T09:00:15;21.17;;;11.73;;
8538;SDS011;4307;53.868;11.680;2024-02-28T09:02:42;23.17;;;12.27;;
8538;SDS011;4307;53.868;11.680;2024-02-28T09:05:09;23.57;;;12.40;;
8538;SDS011;4307;53.868;11.680;2024-02-28T09:07:36;21.87;;;11.63;;
8538;SDS011;4307;53.868;11.680;2024-02-28T09:10:03;19.00;;;10.97;;
8538;SDS011;4307;53.868;11.680;2024-02-28T09:12:31;25.33;;;12.97;;
8538;SDS011;4307;53.868;11.680;2024-02-28T09:14:59;20.97;;;12.53;;
8538;SDS011;4307;53.868;11.680;2024-02-28T09:17:26;20.17;;;11.70;;
8538;SDS011;4307;53.868;11.680;2024-02-28T09:19:52;21.67;;;12.90;;
8538;SDS011;4307;53.868;11.680;2024-02-28T09:22:19;22.07;;;12.43;;
8538;SDS011;4307;53.868;11.680;2024-02-28T09:24:46;20.00;;;12.47;;
8538;SDS011;4307;53.868;11.680;2024-02-28T09:27:13;25.17;;;13.10;;
8538;SDS011;4307;53.868;11.680;2024-02-28T09:29:40;21.53;;;12.57;;
8538;SDS011;4307;53.868;11.680;2024-02-28T09:32:08;23.60;;;13.00;;
8538;SDS011;4307;53.868;11.680;2024-02-28T09:34:35;23.47;;;12.70;;
8538;SDS011;4307;53.868;11.680;2024-02-28T09:37:03;26.10;;;14.43;;
8538;SDS011;4307;53.868;11.680;2024-02-28T09:39:30;26.20;;;14.50;;
8538;SDS011;4307;53.868;11.680;2024-02-28T09:41:56;26.50;;;14.60;;
8538;SDS011;4307;53.868;11.680;2024-02-28T09:44:23;28.57;;;15.10;;
8538;SDS011;4307;53.868;11.680;2024-02-28T09:46:50;26.20;;;15.10;;
8538;SDS011;4307;53.868;11.680;2024-02-28T09:49:19;25.03;;;13.33;;
8538;SDS011;4307;53.868;11.680;2024-02-28T09:51:47;26.80;;;14.10;;
8538;SDS011;4307;53.868;11.680;2024-02-28T09:54:15;23.83;;;13.97;;
8538;SDS011;4307;53.868;11.680;2024-02-28T09:56:42;23.33;;;13.80;;
8538;SDS011;4307;53.868;11.680;2024-02-28T09:59:09;23.93;;;14.37;;
8538;SDS011;4307;53.868;11.680;2024-02-28T10:01:41;25.50;;;14.30;;
8538;SDS011;4307;53.868;11.680;2024-02-28T10:04:09;22.30;;;13.30;;
8538;SDS011;4307;53.868;11.680;2024-02-28T10:06:39;21.23;;;12.40;;
8538;SDS011;4307;53.868;11.680;2024-02-28T10:09:05;21.20;;;13.30;;
8538;SDS011;4307;53.868;11.680;2024-02-28T10:11:33;26.83;;;14.13;;
8538;SDS011;4307;53.868;11.680;2024-02-28T10:14:00;23.37;;;13.87;;
8538;SDS011;4307;53.868;11.680;2024-02-28T10:16:27;24.17;;;13.57;;
8538;SDS011;4307;53.868;11.680;2024-02-28T10:18:54;22.50;;;12.97;;
8538;SDS011;4307;53.868;11.680;2024-02-28T10:21:21;25.20;;;13.93;;
8538;SDS011;4307;53.868;11.680;2024-02-28T10:23:50;22.03;;;12.77;;
8538;SDS011;4307;53.868;11.680;2024-02-28T10:26:16;22.37;;;12.63;;
8538;SDS011;4307;53.868;11.680;2024-02-28T10:28:43;23.93;;;14.47;;
8538;SDS011;4307;53.868;11.680;2024-02-28T10:31:10;27.10;;;13.43;;
8538;SDS011;4307;53.868;11.680;2024-02-28T10:33:37;22.30;;;13.17;;
8538;SDS011;4307;53.868;11.680;2024-02-28T10:36:04;25.27;;;12.53;;
8538;SDS011;4307;53.868;11.680;2024-02-28T10:38:31;21.43;;;12.93;;
8538;SDS011;4307;53.868;11.680;2024-02-28T10:41:00;19.80;;;13.50;;
8538;SDS011;4307;53.868;11.680;2024-02-28T10:43:28;21.73;;;13.60;;
8538;SDS011;4307;53.868;11.680;2024-02-28T10:45:55;21.23;;;12.57;;
8538;SDS011;4307;53.868;11.680;2024-02-28T10:48:23;21.80;;;13.07;;
8538;SDS011;4307;53.868;11.680;2024-02-28T10:50:50;19.23;;;12.13;;
8538;SDS011;4307;53.868;11.680;2024-02-28T10:53:20;22.33;;;12.23;;
8538;SDS011;4307;53.868;11.680;2024-02-28T10:55:48;24.40;;;13.40;;
8538;SDS011;4307;53.868;11.680;2024-02-28T10:58:17;20.97;;;12.33;;
8538;SDS011;4307;53.868;11.680;2024-02-28T11:00:48;21.07;;;13.07;;
8538;SDS011;4307;53.868;11.680;2024-02-28T11:03:16;20.27;;;12.40;;
8538;SDS011;4307;53.868;11.680;2024-02-28T11:05:44;21.90;;;12.50;;
8538;SDS011;4307;53.868;11.680;2024-02-28T11:08:11;21.27;;;13.17;;
8538;SDS011;4307;53.868;11.680;2024-02-28T11:10:47;22.73;;;12.27;;
8538;SDS011;4307;53.868;11.680;2024-02-28T11:13:22;24.80;;;13.13;;
8538;SDS011;4307;53.868;11.680;2024-02-28T11:15:49;17.87;;;11.73;;
8538;SDS011;4307;53.868;11.680;2024-02-28T11:18:15;18.27;;;11.87;;
8538;SDS011;4307;53.868;11.680;2024-02-28T11:20:42;19.60;;;12.33;;
8538;SDS011;4307;53.868;11.680;2024-02-28T11:23:11;22.23;;;12.97;;
8538;SDS011;4307;53.868;11.680;2024-02-28T11:25:39;19.57;;;12.00;;
8538;SDS011;4307;53.868;11.680;2024-02-28T11:28:06;17.57;;;11.93;;
8538;SDS011;4307;53.868;11.680;2024-02-28T11:30:34;22.77;;;11.60;;
8538;SDS011;4307;53.868;11.680;2024-02-28T11:33:01;19.97;;;11.87;;
8538;SDS011;4307;53.868;11.680;2024-02-28T11:35:27;21.63;;;11.57;;
8538;SDS011;4307;53.868;11.680;2024-02-28T11:37:54;21.30;;;12.23;;
8538;SDS011;4307;53.868;11.680;2024-02-28T11:40:23;20.17;;;12.77;;
8538;SDS011;4307;53.868;11.680;2024-02-28T11:42:50;19.77;;;12.03;;
8538;SDS011;4307;53.868;11.680;2024-02-28T11:45:17;21.83;;;11.83;;
8538;SDS011;4307;53.868;11.680;2024-02-28T11:47:45;19.43;;;11.93;;
8538;SDS011;4307;53.868;11.680;2024-02-28T11:50:12;20.30;;;12.27;;
8538;SDS011;4307;53.868;11.680;2024-02-28T11:52:41;20.33;;;12.57;;
8538;SDS011;4307;53.868;11.680;2024-02-28T11:55:08;18.87;;;11.90;;
8538;SDS011;4307;53.868;11.680;2024-02-28T11:57:34;19.23;;;11.97;;
8538;SDS011;4307;53.868;11.680;2024-02-28T12:00:04;22.07;;;12.17;;
8538;SDS011;4307;53.868;11.680;2024-02-28T12:02:32;19.00;;;11.93;;
8538;SDS011;4307;53.868;11.680;2024-02-28T12:05:03;20.63;;;12.27;;
8538;SDS011;4307;53.868;11.680;2024-02-28T12:07:30;20.77;;;12.87;;
8538;SDS011;4307;53.868;11.680;2024-02-28T12:09:57;18.23;;;11.93;;
8538;SDS011;4307;53.868;11.680;2024-02-28T12:12:24;18.97;;;11.47;;
8538;SDS011;4307;53.868;11.680;2024-02-28T12:14:52;18.10;;;11.83;;
8538;SDS011;4307;53.868;11.680;2024-02-28T12:17:24;20.77;;;12.60;;
8538;SDS011;4307;53.868;11.680;2024-02-28T12:19:51;20.77;;;12.67;;
8538;SDS011;4307;53.868;11.680;2024-02-28T12:22:19;20.03;;;11.77;;
8538;SDS011;4307;53.868;11.680;2024-02-28T12:24:46;20.13;;;12.37;;
8538;SDS011;4307;53.868;11.680;2024-02-28T12:27:13;19.80;;;12.77;;
8538;SDS011;4307;53.868;11.680;2024-02-28T12:29:39;23.83;;;12.67;;
8538;SDS011;4307;53.868;11.680;2024-02-28T12:32:06;22.03;;;12.03;;
8538;SDS011;4307;53.868;11.680;2024-02-28T12:34:33;20.60;;;12.03;;
8538;SDS011;4307;53.868;11.680;2024-02-28T12:37:00;17.67;;;11.40;;
8538;SDS011;4307;53.868;11.680;2024-02-28T12:39:29;23.10;;;13.23;;
8538;SDS011;4307;53.868;11.680;2024-02-28T12:41:55;18.43;;;11.93;;
8538;SDS011;4307;53.868;11.680;2024-02-28T12:44:22;19.13;;;12.30;;
8538;SDS011;4307;53.868;11.680;2024-02-28T12:46:49;20.77;;;12.07;;
8538;SDS011;4307;53.868;11.680;2024-02-28T12:49:15;21.33;;;13.00;;
8538;SDS011;4307;53.868;11.680;2024-02-28T12:51:42;21.60;;;12.57;;
8538;SDS011;4307;53.868;11.680;2024-02-28T12:54:11;19.27;;;11.93;;
8538;SDS011;4307;53.868;11.680;2024-02-28T12:56:40;22.70;;;13.13;;
8538;SDS011;4307;53.868;11.680;2024-02-28T12:59:08;21.13;;;13.47;;
8538;SDS011;4307;53.868;11.680;2024-02-28T13:01:35;21.10;;;13.03;;
8538;SDS011;4307;53.868;11.680;2024-02-28T13:04:02;18.73;;;11.77;;
8538;SDS011;4307;53.868;11.680;2024-02-28T13:06:29;22.00;;;12.83;;
8538;SDS011;4307;53.868;11.680;2024-02-28T13:08:56;18.33;;;11.30;;
8538;SDS011;4307;53.868;11.680;2024-02-28T13:11:23;20.27;;;13.03;;
8538;SDS011;4307;53.868;11.680;2024-02-28T13:13:52;19.03;;;12.03;;
8538;SDS011;4307;53.868;11.680;2024-02-28T13:16:19;21.40;;;13.00;;
8538;SDS011;4307;53.868;11.680;2024-02-28T13:18:46;19.10;;;12.77;;
8538;SDS011;4307;53.868;11.680;2024-02-28T13:21:13;20.07;;;12.43;;
8538;SDS011;4307;53.868;11.680;2024-02-28T13:23:40;19.13;;;12.13;;
8538;SDS011;4307;53.868;11.680;2024-02-28T13:26:07;19.20;;;13.10;;
8538;SDS011;4307;53.868;11.680;2024-02-28T13:28:34;19.87;;;13.13;;
8538;SDS011;4307;53.868;11.680;2024-02-28T13:31:02;20.00;;;12.43;;
8538;SDS011;4307;53.868;11.680;2024-02-28T13:33:30;17.40;;;11.93;;
8538;SDS011;4307;53.868;11.680;2024-02-28T13:35:56;18.70;;;12.87;;
8538;SDS011;4307;53.868;11.680;2024-02-28T13:38:23;20.53;;;12.27;;
8538;SDS011;4307;53.868;11.680;2024-02-28T13:40:49;22.23;;;11.73;;
8538;SDS011;4307;53.868;11.680;2024-02-28T13:43:16;18.80;;;12.07;;
8538;SDS011;4307;53.868;11.680;2024-02-28T13:45:45;17.47;;;12.10;;
8538;SDS011;4307;53.868;11.680;2024-02-28T13:48:16;19.70;;;12.00;;
8538;SDS011;4307;53.868;11.680;2024-02-28T13:50:46;18.27;;;11.43;;
8538;SDS011;4307;53.868;11.680;2024-02-28T13:53:13;19.60;;;12.70;;
8538;SDS011;4307;53.868;11.680;2024-02-28T13:55:41;19.33;;;11.70;;
8538;SDS011;4307;53.868;11.680;2024-02-28T13:58:08;18.43;;;12.03;;
8538;SDS011;4307;53.868;11.680;2024-02-28T14:00:36;17.77;;;11.60;;
8538;SDS011;4307;53.868;11.680;2024-02-28T14:03:03;19.60;;;11.63;;
8538;SDS011;4307;53.868;11.680;2024-02-28T14:05:32;17.17;;;11.10;;
8538;SDS011;4307;53.868;11.680;2024-02-28T14:07:59;18.30;;;11.60;;
8538;SDS011;4307;53.868;11.680;2024-02-28T14:10:28;17.67;;;11.93;;
8538;SDS011;4307;53.868;11.680;2024-02-28T14:12:55;19.60;;;12.13;;
8538;SDS011;4307;53.868;11.680;2024-02-28T14:15:23;18.47;;;12.67;;
8538;SDS011;4307;53.868;11.680;2024-02-28T14:17:50;16.23;;;10.90;;
8538;SDS011;4307;53.868;11.680;2024-02-28T14:20:17;17.33;;;11.27;;
8538;SDS011;4307;53.868;11.680;2024-02-28T14:22:45;18.33;;;10.90;;
8538;SDS011;4307;53.868;11.680;2024-02-28T14:25:12;15.83;;;10.80;;
8538;SDS011;4307;53.868;11.680;2024-02-28T14:27:41;16.80;;;11.27;;
8538;SDS011;4307;53.868;11.680;2024-02-28T14:30:10;17.10;;;10.83;;
8538;SDS011;4307;53.868;11.680;2024-02-28T14:32:38;18.93;;;11.77;;
8538;SDS011;4307;53.868;11.680;2024-02-28T14:35:05;17.93;;;11.90;;
8538;SDS011;4307;53.868;11.680;2024-02-28T14:37:33;17.47;;;11.43;;
8538;SDS011;4307;53.868;11.680;2024-02-28T14:40:02;16.53;;;10.90;;